Time;durP1;ratioP1;P1;durP2;ratioP2;P2;SDS_P1;SDS_P2;PMS_P1;PMS_P2;Temp;Humidity;BMP_temperature;BMP_pressure;BME280_temperature;BME280_humidity;BME280_pressure;Samples;Min_cycle;Max_cycle;Signal;HPM_P1;HPM_P2
2022/11/08 00:03:31;;;;;;;6.57;1.90;;;12.90;99.90;;;;;;5085477;28;20419;-73
2022/11/08 00:14:11;;;;;;;6.57;1.48;;;12.90;99.90;;;;;;5085192;28;20047;-71
2022/11/08 00:16:36;;;;;;;5.82;1.58;;;12.80;99.90;;;;;;5100769;28;20372;-72
2022/11/08 00:19:02;;;;;;;8.02;1.33;;;12.90;99.90;;;;;;5099458;28;20054;-72
2022/11/08 00:21:28;;;;;;;5.95;1.55;;;12.90;99.90;;;;;;5100059;28;20401;-73
2022/11/08 00:23:54;;;;;;;6.50;1.58;;;12.80;99.90;;;;;;5082249;28;20039;-70
2022/11/08 00:26:20;;;;;;;7.53;1.30;;;12.80;99.90;;;;;;5099239;28;20028;-72
2022/11/08 00:28:45;;;;;;;6.30;1.92;;;12.80;99.90;;;;;;5082526;28;20055;-74
2022/11/08 00:31:11;;;;;;;6.43;1.30;;;12.80;99.90;;;;;;5098990;28;20089;-71
2022/11/08 00:33:37;;;;;;;4.03;1.30;;;12.80;99.90;;;;;;5082031;28;20067;-71
2022/11/08 00:36:03;;;;;;;4.97;1.30;;;12.80;99.90;;;;;;5099791;28;20086;-73
2022/11/08 00:38:29;;;;;;;4.43;1.40;;;12.80;99.90;;;;;;5099127;28;20032;-72
2022/11/08 00:40:58;;;;;;;4.63;1.30;;;12.80;99.90;;;;;;5099381;28;20090;-71
2022/11/08 00:43:24;;;;;;;8.43;1.70;;;12.80;99.90;;;;;;5098719;28;20119;-71
2022/11/08 00:45:50;;;;;;;3.30;1.30;;;12.80;99.90;;;;;;5098788;28;20107;-72
2022/11/08 00:48:15;;;;;;;7.05;1.40;;;12.80;99.90;;;;;;5082127;28;20032;-71
2022/11/08 00:50:41;;;;;;;6.20;1.60;;;12.70;99.90;;;;;;5099026;28;20036;-73
2022/11/08 00:53:07;;;;;;;8.57;1.80;;;12.70;99.90;;;;;;5098869;28;20093;-72
2022/11/08 00:55:36;;;;;;;5.57;1.50;;;12.70;99.90;;;;;;5099254;28;20060;-72
2022/11/08 00:58:02;;;;;;;7.10;1.55;;;12.70;99.90;;;;;;5081582;28;20466;-72
2022/11/08 01:00:28;;;;;;;4.80;1.38;;;12.60;99.90;;;;;;5099452;28;20067;-71
2022/11/08 01:05:38;;;;;;;8.98;1.52;;;12.60;99.90;;;;;;5099572;28;20032;-71
2022/11/08 01:08:07;;;;;;;4.70;1.50;;;12.60;99.90;;;;;;5098521;28;20042;-71
2022/11/08 01:10:36;;;;;;;7.80;1.90;;;12.50;99.90;;;;;;5099151;28;20035;-70
2022/11/08 01:13:03;;;;;;;9.32;1.55;;;12.50;99.90;;;;;;5098888;28;20278;-69
2022/11/08 01:15:34;;;;;;;7.45;1.52;;;12.40;99.90;;;;;;5081411;28;20395;-71
2022/11/08 01:18:01;;;;;;;6.40;2.00;;;12.40;99.90;;;;;;5098227;28;20032;-69
2022/11/08 01:20:27;;;;;;;8.65;2.15;;;12.40;99.90;;;;;;5098702;28;20029;-70
2022/11/08 01:22:52;;;;;;;9.43;2.10;;;12.40;99.90;;;;;;5098603;28;20047;-72
2022/11/08 01:25:18;;;;;;;10.27;2.03;;;12.40;99.90;;;;;;5098634;28;20411;-70
2022/11/08 01:27:44;;;;;;;6.35;2.08;;;12.30;99.90;;;;;;5097935;28;20028;-70
2022/11/08 01:30:10;;;;;;;7.72;2.00;;;12.30;99.90;;;;;;5098113;28;20093;-71
2022/11/08 01:32:36;;;;;;;6.20;1.92;;;12.10;99.90;;;;;;5097761;28;20025;-70
2022/11/08 01:35:01;;;;;;;8.13;2.20;;;12.00;99.90;;;;;;5097817;28;20124;-70
2022/11/08 01:37:27;;;;;;;6.00;1.85;;;12.00;99.90;;;;;;5097662;28;20043;-70
2022/11/08 01:39:53;;;;;;;7.00;1.90;;;12.00;99.90;;;;;;5098906;28;20115;-70
2022/11/08 01:42:30;;;;;;;8.00;1.63;;;11.90;99.90;;;;;;5097461;28;20025;-71
2022/11/08 01:45:04;;;;;;;5.15;1.63;;;11.90;99.90;;;;;;5098444;28;20031;-70
2022/11/08 01:47:30;;;;;;;5.78;1.70;;;12.00;99.90;;;;;;5098657;28;20103;-71
2022/11/08 01:50:22;;;;;;;7.97;1.90;;;12.00;99.90;;;;;;5098498;28;20051;-70
2022/11/08 01:52:52;;;;;;;4.70;1.57;;;12.10;99.90;;;;;;5096807;28;20046;-70
2022/11/08 01:55:29;;;;;;;7.80;1.80;;;12.10;99.90;;;;;;5097627;28;20331;-70
2022/11/08 01:57:58;;;;;;;5.03;1.60;;;12.10;99.90;;;;;;5098159;28;20299;-71
2022/11/08 02:00:24;;;;;;;3.53;1.55;;;12.10;99.90;;;;;;5098215;28;20085;-70
2022/11/08 02:02:59;;;;;;;7.43;2.10;;;12.10;99.90;;;;;;5097886;28;20040;-73
2022/11/08 02:05:28;;;;;;;5.40;1.63;;;12.20;99.90;;;;;;5097283;28;20020;-70
2022/11/08 02:08:08;;;;;;;5.30;1.77;;;12.20;99.90;;;;;;5097087;28;20272;-70
2022/11/08 02:10:43;;;;;;;4.05;1.50;;;12.20;99.90;;;;;;5098137;28;20020;-70
2022/11/08 02:13:13;;;;;;;4.30;1.80;;;12.20;99.90;;;;;;5097385;28;20145;-71
2022/11/08 02:15:39;;;;;;;6.10;1.80;;;12.20;99.90;;;;;;5096955;28;20100;-70
2022/11/08 02:18:05;;;;;;;4.65;1.50;;;12.10;99.90;;;;;;5097001;28;20024;-70
2022/11/08 02:20:32;;;;;;;4.13;1.50;;;12.10;99.90;;;;;;5097868;28;20469;-69
2022/11/08 02:23:29;;;;;;;6.07;1.80;;;12.10;99.90;;;;;;5096941;28;20031;-71
2022/11/08 02:25:54;;;;;;;7.20;1.98;;;12.10;99.90;;;;;;5097562;28;20081;-71
2022/11/08 02:28:24;;;;;;;7.72;1.60;;;12.00;99.90;;;;;;5080001;28;20032;-70
2022/11/08 02:30:50;;;;;;;2.95;1.40;;;11.90;99.90;;;;;;5097571;28;20036;-70
2022/11/08 02:33:21;;;;;;;4.38;1.60;;;11.90;99.90;;;;;;5079932;28;20042;-71
2022/11/08 02:35:50;;;;;;;5.15;1.80;;;11.90;99.90;;;;;;5097481;28;20024;-71
2022/11/08 02:38:17;;;;;;;6.65;1.83;;;11.90;99.90;;;;;;5097620;28;20119;-70
2022/11/08 02:40:50;;;;;;;9.65;1.85;;;11.90;99.90;;;;;;5097611;28;20028;-70
2022/11/08 02:43:15;;;;;;;5.25;1.50;;;11.90;99.90;;;;;;5097172;28;20032;-70
2022/11/08 02:45:41;;;;;;;5.25;1.63;;;11.80;99.90;;;;;;5079622;28;20043;-71
2022/11/08 02:48:07;;;;;;;7.05;2.20;;;11.90;99.90;;;;;;5096510;28;20115;-70
2022/11/08 02:50:33;;;;;;;5.32;1.80;;;11.90;99.90;;;;;;5079736;28;20024;-70
2022/11/08 02:52:59;;;;;;;5.22;1.65;;;11.90;99.90;;;;;;5080182;28;20032;-70
2022/11/08 02:55:25;;;;;;;5.22;1.98;;;11.90;99.90;;;;;;5096496;28;20039;-71
2022/11/08 02:57:50;;;;;;;6.30;1.98;;;12.00;99.90;;;;;;5096964;28;20035;-69
2022/11/08 03:00:16;;;;;;;4.40;1.70;;;11.90;99.90;;;;;;5096866;28;20062;-70
2022/11/08 03:02:42;;;;;;;9.55;1.90;;;11.90;99.90;;;;;;5079141;28;20032;-70
2022/11/08 03:05:08;;;;;;;6.13;1.77;;;11.90;99.90;;;;;;5079587;28;20054;-70
2022/11/08 03:07:34;;;;;;;5.35;1.50;;;11.90;99.90;;;;;;5079412;28;20020;-71
2022/11/08 03:09:59;;;;;;;5.95;1.55;;;11.80;99.90;;;;;;5096620;28;20043;-70
2022/11/08 03:12:25;;;;;;;3.60;1.40;;;11.80;99.90;;;;;;5097321;28;20392;-71
2022/11/08 03:14:51;;;;;;;4.90;1.70;;;11.80;99.90;;;;;;5097013;28;20127;-70
2022/11/08 03:17:17;;;;;;;4.85;1.40;;;11.90;99.90;;;;;;5079587;28;20047;-70
2022/11/08 03:19:43;;;;;;;3.63;1.40;;;11.80;99.90;;;;;;5096659;28;20028;-70
2022/11/08 03:22:08;;;;;;;6.00;1.85;;;11.80;99.90;;;;;;5080084;28;20031;-68
2022/11/08 03:24:34;;;;;;;7.28;1.77;;;11.80;99.90;;;;;;5096734;28;20036;-70
2022/11/08 03:27:00;;;;;;;7.68;1.70;;;11.80;99.90;;;;;;5079910;28;20020;-70
2022/11/08 03:29:26;;;;;;;4.80;1.48;;;11.80;99.90;;;;;;5097378;28;20095;-70
2022/11/08 03:31:51;;;;;;;8.23;1.70;;;11.80;99.90;;;;;;5096800;28;20072;-70
2022/11/08 03:34:17;;;;;;;6.28;1.60;;;11.80;99.90;;;;;;5096345;28;20035;-70
2022/11/08 03:36:43;;;;;;;6.68;1.80;;;11.70;99.90;;;;;;5096355;28;20043;-70
2022/11/08 03:39:10;;;;;;;4.00;1.65;;;11.70;99.90;;;;;;5096583;28;20032;-70
2022/11/08 03:41:36;;;;;;;6.43;1.60;;;11.70;99.90;;;;;;5096653;28;20032;-70
2022/11/08 03:44:02;;;;;;;5.35;1.90;;;11.60;99.90;;;;;;5079140;28;20097;-70
2022/11/08 03:46:27;;;;;;;6.18;1.98;;;11.60;99.90;;;;;;5096097;28;20032;-70
2022/11/08 03:48:53;;;;;;;3.03;1.52;;;11.60;99.90;;;;;;5096789;28;20028;-70
2022/11/08 03:51:19;;;;;;;5.43;1.60;;;11.60;99.90;;;;;;5079357;28;20071;-70
2022/11/08 03:53:44;;;;;;;6.13;2.10;;;11.60;99.90;;;;;;5096647;28;20043;-70
2022/11/08 03:56:10;;;;;;;5.50;1.80;;;11.50;99.90;;;;;;5079237;28;20127;-69
2022/11/08 03:58:36;;;;;;;6.00;1.80;;;11.50;99.90;;;;;;5096580;28;20059;-69
2022/11/08 04:01:04;;;;;;;4.85;1.60;;;11.60;99.90;;;;;;5096026;28;20059;-70
2022/11/08 04:03:30;;;;;;;3.92;1.70;;;11.50;99.90;;;;;;5096580;28;20104;-70
2022/11/08 04:05:59;;;;;;;5.47;1.92;;;11.50;99.90;;;;;;5096681;28;20416;-71
2022/11/08 04:08:24;;;;;;;4.30;2.22;;;11.50;99.90;;;;;;5096957;28;20103;-70
2022/11/08 04:10:54;;;;;;;3.55;1.58;;;11.40;99.90;;;;;;5096330;28;20112;-69
2022/11/08 04:16:05;;;;;;;3.85;1.77;;;11.60;99.90;;;;;;5098580;28;20299;-70
2022/11/08 04:21:23;;;;;;;3.47;1.40;;;11.40;99.90;;;;;;5099778;28;20044;-69
2022/11/08 04:23:50;;;;;;;6.47;1.92;;;11.40;99.90;;;;;;5099703;28;20036;-69
2022/11/08 04:26:17;;;;;;;7.03;1.58;;;11.30;99.90;;;;;;5100252;28;20115;-70
2022/11/08 04:28:44;;;;;;;4.13;1.60;;;11.30;99.90;;;;;;5099101;28;20407;-69
2022/11/08 04:31:17;;;;;;;5.20;1.50;;;11.20;99.90;;;;;;5099179;28;20392;-69
2022/11/08 04:33:43;;;;;;;4.93;1.60;;;11.20;99.90;;;;;;5100365;28;20039;-70
2022/11/08 04:36:12;;;;;;;3.67;1.30;;;11.20;99.90;;;;;;5082793;28;20042;-69
2022/11/08 04:38:38;;;;;;;3.15;1.15;;;11.20;99.90;;;;;;5098952;28;20060;-70
2022/11/08 04:41:10;;;;;;;4.20;1.73;;;11.20;99.90;;;;;;5099141;28;20063;-69
2022/11/08 04:43:36;;;;;;;;;;;11.20;99.90;;;;;;5099640;28;20036;-69
2022/11/08 04:46:14;;;;;;;39.45;25.10;;;11.20;99.90;;;;;;5098586;28;19915;-71
2022/11/08 04:48:41;;;;;;;3.70;1.80;;;11.10;99.90;;;;;;5099701;28;20338;-69
2022/11/08 04:51:11;;;;;;;4.63;1.40;;;11.10;99.90;;;;;;5099060;28;20024;-69
2022/11/08 04:53:36;;;;;;;2.75;1.20;;;11.10;99.90;;;;;;5099490;28;20105;-70
2022/11/08 04:56:05;;;;;;;2.55;1.58;;;11.10;99.90;;;;;;5082273;28;20364;-69
2022/11/08 04:58:37;;;;;;;4.68;1.70;;;11.10;99.90;;;;;;5098509;28;20044;-69
2022/11/08 05:01:04;;;;;;;3.20;1.40;;;11.20;99.90;;;;;;5099866;28;20024;-70
2022/11/08 05:03:30;;;;;;;3.60;1.30;;;11.20;99.90;;;;;;5099304;28;20530;-69
2022/11/08 05:06:04;;;;;;;6.80;1.50;;;11.10;99.90;;;;;;5099218;28;20118;-69
2022/11/08 05:08:30;;;;;;;4.57;1.30;;;11.10;99.90;;;;;;5099029;28;20035;-69
2022/11/08 05:11:07;;;;;;;2.53;1.30;;;11.10;99.90;;;;;;5098260;28;20024;-69
2022/11/08 05:13:33;;;;;;;2.55;1.23;;;11.20;99.90;;;;;;5099102;28;20032;-69
2022/11/08 05:16:01;;;;;;;4.18;1.50;;;11.20;99.90;;;;;;5098927;28;20107;-69
2022/11/08 05:18:28;;;;;;;3.75;1.30;;;11.20;99.90;;;;;;5098900;28;20024;-69
2022/11/08 05:23:43;;;;;;;2.95;1.30;;;11.20;99.90;;;;;;5098148;28;20051;-69
2022/11/08 05:26:10;;;;;;;3.97;1.33;;;11.20;99.90;;;;;;5098435;28;20031;-69
2022/11/08 05:28:36;;;;;;;4.82;1.23;;;11.20;99.90;;;;;;5097832;28;20039;-69
2022/11/08 05:31:04;;;;;;;2.75;1.25;;;11.20;99.90;;;;;;5097869;28;20051;-70
2022/11/08 05:33:29;;;;;;;3.72;1.35;;;11.30;99.90;;;;;;5098346;28;20086;-69
2022/11/08 05:35:55;;;;;;;4.70;1.30;;;11.30;99.90;;;;;;5098972;28;20395;-70
2022/11/08 05:38:21;;;;;;;2.53;1.40;;;11.40;99.90;;;;;;5097945;28;20044;-69
2022/11/08 05:40:47;;;;;;;3.03;1.35;;;11.40;99.90;;;;;;5064184;28;20284;-69
2022/11/08 05:43:13;;;;;;;2.85;1.38;;;11.40;99.90;;;;;;5098075;28;20036;-69
2022/11/08 05:45:38;;;;;;;4.53;1.52;;;11.40;99.90;;;;;;5097545;28;20462;-67
2022/11/08 05:48:05;;;;;;;1.80;1.30;;;11.40;99.90;;;;;;5081144;28;20036;-68
2022/11/08 05:50:34;;;;;;;3.60;1.10;;;11.50;99.90;;;;;;5098443;28;20333;-69
2022/11/08 05:53:04;;;;;;;2.30;1.10;;;11.60;99.90;;;;;;5098550;28;20051;-71
2022/11/08 05:55:30;;;;;;;3.25;1.13;;;11.60;99.90;;;;;;5080696;28;20028;-69
2022/11/08 05:57:56;;;;;;;4.20;1.60;;;11.60;99.90;;;;;;5097517;28;20035;-69
2022/11/08 06:00:22;;;;;;;2.65;1.10;;;11.60;99.90;;;;;;5097560;28;20163;-69
2022/11/08 06:02:48;;;;;;;6.10;1.42;;;11.70;99.90;;;;;;5080459;28;20471;-71
2022/11/08 06:05:13;;;;;;;3.58;1.20;;;11.70;99.90;;;;;;5081222;28;20233;-68
2022/11/08 06:07:39;;;;;;;2.63;1.27;;;11.70;99.90;;;;;;5097938;28;20092;-71
2022/11/08 06:10:06;;;;;;;3.40;1.60;;;11.80;99.90;;;;;;5097583;28;20391;-69
2022/11/08 06:12:31;;;;;;;4.22;1.30;;;11.80;99.90;;;;;;5098033;28;20028;-68
2022/11/08 06:14:57;;;;;;;3.13;1.27;;;11.80;99.90;;;;;;5080287;28;20039;-68
2022/11/08 06:17:23;;;;;;;2.50;1.27;;;11.80;99.90;;;;;;5097475;28;20032;-70
2022/11/08 06:19:49;;;;;;;3.25;1.10;;;11.80;99.90;;;;;;5097374;28;20038;-70
2022/11/08 06:22:15;;;;;;;4.10;1.30;;;11.80;99.90;;;;;;5097691;28;20039;-70
2022/11/08 06:24:40;;;;;;;3.03;1.30;;;11.70;99.90;;;;;;5063370;28;20431;-70
2022/11/08 06:27:06;;;;;;;1.90;0.95;;;11.70;99.90;;;;;;5079954;28;20067;-72
2022/11/08 06:29:32;;;;;;;3.25;1.45;;;11.70;99.90;;;;;;5079844;28;20028;-70
2022/11/08 06:31:58;;;;;;;3.20;1.23;;;11.70;99.90;;;;;;5097673;28;20039;-71
2022/11/08 06:34:24;;;;;;;4.80;1.40;;;11.60;99.90;;;;;;5096932;28;20040;-70
2022/11/08 06:36:51;;;;;;;2.80;1.33;;;11.70;99.90;;;;;;5079628;28;20055;-70
2022/11/08 06:39:17;;;;;;;3.55;1.10;;;11.70;99.90;;;;;;5079049;28;20028;-70
2022/11/08 06:41:43;;;;;;;4.38;1.20;;;11.70;99.90;;;;;;5097234;28;20036;-71
2022/11/08 06:44:09;;;;;;;2.22;1.50;;;11.70;99.90;;;;;;5080430;28;20044;-70
2022/11/08 06:46:34;;;;;;;6.07;1.40;;;11.80;99.90;;;;;;5096452;28;20027;-70
2022/11/08 06:49:00;;;;;;;1.55;0.95;;;11.80;99.90;;;;;;5097203;28;20020;-72
2022/11/08 06:51:26;;;;;;;5.45;1.30;;;11.80;99.90;;;;;;5096166;28;20039;-70
2022/11/08 06:53:52;;;;;;;2.83;1.20;;;11.90;99.90;;;;;;5079604;28;20422;-70
2022/11/08 06:56:17;;;;;;;2.20;1.13;;;11.90;99.90;;;;;;5079420;28;20433;-70
2022/11/08 06:58:43;;;;;;;3.63;1.55;;;11.90;99.90;;;;;;5079248;28;20304;-70
2022/11/08 07:01:10;;;;;;;5.00;1.40;;;11.90;99.90;;;;;;5079853;28;20035;-68
2022/11/08 07:03:36;;;;;;;3.50;1.10;;;12.00;99.90;;;;;;5079406;28;20052;-69
2022/11/08 07:06:04;;;;;;;2.88;1.20;;;12.00;99.90;;;;;;5097073;28;20110;-69
2022/11/08 07:08:30;;;;;;;2.78;1.15;;;12.00;99.90;;;;;;5062403;28;20038;-69
2022/11/08 07:10:56;;;;;;;3.78;1.45;;;12.00;99.90;;;;;;5096041;28;20036;-70
2022/11/08 07:13:22;;;;;;;12.98;2.60;;;12.00;99.90;;;;;;5096179;28;20409;-69
2022/11/08 07:15:48;;;;;;;11.95;1.48;;;12.10;99.90;;;;;;5079229;28;20028;-69
2022/11/08 07:18:16;;;;;;;3.03;1.20;;;12.10;99.90;;;;;;5095957;28;20062;-69
2022/11/08 07:20:42;;;;;;;3.40;1.42;;;12.10;99.90;;;;;;5096748;28;20093;-69
2022/11/08 07:23:10;;;;;;;1.83;1.20;;;12.10;99.90;;;;;;5096720;28;20032;-70
2022/11/08 07:25:36;;;;;;;3.17;1.40;;;12.20;99.90;;;;;;5096537;28;20020;-70
2022/11/08 07:28:05;;;;;;;2.80;1.20;;;12.20;99.90;;;;;;5095894;28;20028;-71
2022/11/08 07:30:33;;;;;;;1.45;1.23;;;12.20;99.90;;;;;;5095886;28;20039;-69
2022/11/08 07:32:58;;;;;;;2.83;1.10;;;12.30;99.90;;;;;;5095924;28;20418;-70
2022/11/08 07:35:26;;;;;;;2.08;1.10;;;12.30;99.90;;;;;;5096306;28;20044;-69
2022/11/08 07:37:52;;;;;;;3.80;1.20;;;12.30;99.90;;;;;;5096103;28;20467;-69
2022/11/08 07:40:18;;;;;;;3.28;1.00;;;12.40;99.90;;;;;;5096607;28;20028;-68
2022/11/08 07:42:44;;;;;;;1.88;1.10;;;12.40;99.90;;;;;;5096661;28;20115;-69
2022/11/08 07:45:11;;;;;;;3.05;1.40;;;12.50;99.90;;;;;;5096152;28;20051;-71
2022/11/08 07:47:37;;;;;;;3.17;1.27;;;12.50;99.90;;;;;;5079204;28;20426;-70
2022/11/08 07:50:04;;;;;;;6.38;1.30;;;12.50;99.90;;;;;;5098964;28;20089;-69
2022/11/08 07:52:30;;;;;;;3.80;1.08;;;12.60;99.90;;;;;;5099743;28;20054;-69
2022/11/08 07:54:56;;;;;;;4.47;1.25;;;12.70;99.90;;;;;;5099884;28;20044;-70
2022/11/08 07:57:21;;;;;;;1.83;1.00;;;12.70;99.90;;;;;;5100042;28;20036;-71
2022/11/08 07:59:47;;;;;;;3.10;1.33;;;12.70;99.90;;;;;;5100638;28;20109;-72
2022/11/08 08:02:13;;;;;;;1.50;1.15;;;12.80;99.90;;;;;;5099586;28;20173;-71
2022/11/08 08:04:39;;;;;;;2.88;1.30;;;12.80;99.90;;;;;;5099998;28;20032;-70
2022/11/08 08:07:05;;;;;;;1.88;1.17;;;12.80;99.90;;;;;;5082633;28;20028;-71
2022/11/08 08:09:35;;;;;;;2.03;1.10;;;12.90;99.90;;;;;;5099447;28;20031;-71
2022/11/08 08:12:01;;;;;;;3.83;1.10;;;13.00;99.90;;;;;;5099373;28;20451;-71
2022/11/08 08:14:27;;;;;;;2.38;1.20;;;13.10;99.90;;;;;;5099469;28;20338;-71
2022/11/08 08:16:52;;;;;;;2.05;1.25;;;13.20;99.90;;;;;;5099585;28;20062;-71
2022/11/08 08:19:18;;;;;;;2.30;1.05;;;13.30;99.90;;;;;;5082497;28;20111;-70
2022/11/08 08:21:44;;;;;;;2.90;1.40;;;13.40;99.90;;;;;;5099345;28;20028;-70
2022/11/08 08:24:10;;;;;;;2.17;1.30;;;13.50;99.90;;;;;;5100407;28;20032;-72
2022/11/08 08:26:36;;;;;;;4.45;1.45;;;13.50;99.90;;;;;;5099251;28;20032;-72
2022/11/08 08:29:01;;;;;;;3.15;1.30;;;13.50;99.90;;;;;;5098925;28;20425;-70
2022/11/08 08:31:27;;;;;;;4.47;1.42;;;13.50;99.90;;;;;;5098836;28;20356;-70
2022/11/08 08:33:53;;;;;;;3.15;1.35;;;13.50;99.90;;;;;;5082019;28;20029;-70
2022/11/08 08:36:19;;;;;;;3.38;1.00;;;13.60;99.90;;;;;;5099649;28;20052;-71
2022/11/08 08:38:44;;;;;;;2.83;1.30;;;13.80;99.90;;;;;;5099312;28;20032;-72
2022/11/08 08:41:10;;;;;;;2.53;1.40;;;13.70;99.90;;;;;;5099745;28;20047;-71
2022/11/08 08:43:36;;;;;;;2.92;1.13;;;13.50;99.90;;;;;;5099156;28;20440;-72
2022/11/08 08:46:04;;;;;;;4.80;1.40;;;13.50;99.90;;;;;;5099471;28;20036;-71
2022/11/08 08:48:32;;;;;;;2.17;1.10;;;13.60;99.90;;;;;;5099672;28;20028;-72
2022/11/08 08:50:58;;;;;;;2.78;1.30;;;13.60;99.90;;;;;;5099440;28;20040;-72
2022/11/08 08:53:24;;;;;;;4.53;1.30;;;13.70;99.90;;;;;;5099273;28;20032;-70
2022/11/08 08:55:51;;;;;;;3.10;1.30;;;13.70;99.90;;;;;;5098634;28;20040;-71
2022/11/08 08:58:18;;;;;;;4.50;1.20;;;13.70;99.90;;;;;;5065503;28;20456;-70
2022/11/08 09:00:44;;;;;;;3.70;1.10;;;13.80;99.90;;;;;;5098039;28;20028;-71
2022/11/08 09:03:11;;;;;;;2.20;1.10;;;13.80;99.90;;;;;;5081444;28;20096;-71
2022/11/08 09:05:42;;;;;;;2.97;1.15;;;13.80;99.90;;;;;;5099160;28;20035;-72
2022/11/08 09:08:13;;;;;;;2.15;1.10;;;13.90;99.90;;;;;;5098622;28;20409;-72
2022/11/08 09:10:39;;;;;;;3.38;1.42;;;14.00;99.90;;;;;;5081664;28;20055;-73
2022/11/08 09:13:05;;;;;;;2.25;1.30;;;14.10;99.90;;;;;;5098210;28;20360;-70
2022/11/08 09:15:31;;;;;;;3.53;1.27;;;14.20;99.90;;;;;;5098299;28;20036;-71
2022/11/08 09:17:57;;;;;;;1.92;1.10;;;14.20;99.90;;;;;;5081524;28;20107;-72
2022/11/08 09:20:23;;;;;;;4.82;1.38;;;14.30;99.90;;;;;;5098285;28;20055;-70
2022/11/08 09:22:49;;;;;;;3.58;1.20;;;14.20;99.90;;;;;;5098646;28;20067;-69
2022/11/08 09:25:15;;;;;;;2.80;1.17;;;14.30;99.90;;;;;;5098670;28;20054;-70
2022/11/08 09:27:41;;;;;;;3.53;1.20;;;14.30;99.90;;;;;;5098634;28;20024;-71
2022/11/08 09:30:07;;;;;;;4.78;1.10;;;14.30;99.90;;;;;;5098706;28;20023;-71
2022/11/08 09:32:33;;;;;;;3.75;1.38;;;14.40;99.90;;;;;;5097817;28;20432;-70
2022/11/08 09:34:59;;;;;;;4.63;1.27;;;14.40;99.90;;;;;;5099044;28;20044;-73
2022/11/08 09:37:25;;;;;;;4.80;1.30;;;14.50;99.90;;;;;;5081015;28;20059;-72
2022/11/08 09:39:51;;;;;;;3.42;1.42;;;14.60;99.90;;;;;;5081114;28;20024;-70
2022/11/08 09:42:27;;;;;;;3.05;1.52;;;14.60;99.90;;;;;;5097652;28;20036;-73
2022/11/08 09:45:04;;;;;;;4.07;1.55;;;14.60;99.90;;;;;;5097391;28;20292;-68
2022/11/08 09:47:34;;;;;;;4.22;1.30;;;14.60;99.90;;;;;;5097581;28;20027;-70
2022/11/08 09:50:27;;;;;;;1.85;1.15;;;14.60;99.90;;;;;;5098413;28;20080;-69
2022/11/08 09:53:20;;;;;;;4.93;1.30;;;14.50;99.90;;;;;;5109825;28;20404;-69
2022/11/08 09:56:00;;;;;;;6.10;1.20;;;14.50;99.90;;;;;;5097380;28;20268;-69
2022/11/08 09:58:29;;;;;;;4.75;1.23;;;14.50;99.90;;;;;;5097919;28;20041;-69
2022/11/08 10:00:55;;;;;;;3.20;1.17;;;14.60;99.90;;;;;;5098316;28;20112;-66
2022/11/08 10:03:23;;;;;;;2.28;1.05;;;14.60;99.90;;;;;;5097385;28;20150;-71
2022/11/08 10:06:01;;;;;;;4.85;1.33;;;14.60;99.90;;;;;;5098164;28;20080;-68
2022/11/08 10:09:07;;;;;;;4.78;1.60;;;14.70;99.90;;;;;;5097194;28;20028;-71
2022/11/08 10:12:07;;;;;;;4.15;1.48;;;14.80;99.90;;;;;;5096802;28;20343;-70
2022/11/08 10:14:42;;;;;;;6.03;1.42;;;14.80;99.90;;;;;;5063888;28;20040;-70
2022/11/08 10:18:02;;;;;;;2.65;1.10;;;15.00;99.90;;;;;;5098175;28;20028;-71
2022/11/08 10:20:43;;;;;;;3.90;1.10;;;14.90;99.90;;;;;;5016930;28;20333;-70
2022/11/08 10:23:26;;;;;;;2.95;1.30;;;14.90;99.90;;;;;;5089295;28;20124;-69
2022/11/08 10:25:57;;;;;;;4.63;1.17;;;14.90;99.90;;;;;;5097617;28;20028;-69
2022/11/08 10:28:36;;;;;;;2.97;1.15;;;14.80;99.90;;;;;;5097612;28;20020;-70
2022/11/08 10:31:03;;;;;;;3.35;1.25;;;14.90;99.90;;;;;;5097564;28;20085;-70
2022/11/08 10:33:51;;;;;;;2.80;1.40;;;14.90;99.90;;;;;;5080160;28;20039;-68
2022/11/08 10:36:36;;;;;;;7.45;1.75;;;15.00;99.90;;;;;;5080060;28;20020;-67
2022/11/08 10:39:11;;;;;;;5.13;1.45;;;15.00;99.90;;;;;;5097487;28;20119;-69
2022/11/08 10:42:15;;;;;;;2.90;1.60;;;15.00;99.90;;;;;;5096700;28;20071;-68
2022/11/08 10:44:41;;;;;;;3.95;1.15;;;15.00;99.90;;;;;;5097115;28;20127;-69
2022/11/08 10:47:32;;;;;;;4.53;1.23;;;15.10;99.90;;;;;;5096356;28;20104;-68
2022/11/08 10:49:58;;;;;;;6.65;1.75;;;15.10;99.90;;;;;;5097426;28;20404;-70
2022/11/08 10:52:33;;;;;;;4.30;1.63;;;15.00;99.90;;;;;;5079834;28;20032;-68
2022/11/08 10:55:07;;;;;;;4.50;1.33;;;15.00;99.90;;;;;;5096576;28;20032;-70
2022/11/08 10:57:43;;;;;;;3.17;1.10;;;15.20;99.90;;;;;;5096394;28;20043;-69
2022/11/08 11:00:18;;;;;;;5.25;1.40;;;15.40;99.90;;;;;;5076140;28;20048;-69
2022/11/08 11:02:50;;;;;;;6.97;1.60;;;15.60;99.90;;;;;;5076728;28;20029;-69
2022/11/08 11:05:16;;;;;;;4.82;1.65;;;15.60;99.90;;;;;;5076114;28;20127;-67
2022/11/08 11:08:03;;;;;;;4.38;1.42;;;15.80;99.90;;;;;;5059126;28;20024;-69
2022/11/08 11:10:33;;;;;;;4.35;1.35;;;15.60;99.90;;;;;;5076921;28;20044;-69
2022/11/08 11:13:22;;;;;;;2.40;1.10;;;15.50;99.90;;;;;;5076266;28;20078;-69
2022/11/08 11:15:55;;;;;;;3.63;1.38;;;15.50;99.90;;;;;;5077376;28;20461;-68
2022/11/08 11:18:26;;;;;;;3.13;1.27;;;15.50;99.90;;;;;;5076760;28;20025;-68
2022/11/08 11:21:06;;;;;;;4.38;1.23;;;15.50;99.90;;;;;;5059253;28;20044;-71
2022/11/08 11:23:38;;;;;;;6.35;1.70;;;15.50;99.90;;;;;;5076087;28;20037;-69
2022/11/08 11:26:05;;;;;;;;;;;15.50;99.90;;;;;;5063827;28;20029;-69
2022/11/08 11:28:37;;;;;;;3.47;1.40;;;15.40;99.90;;;;;;5080094;28;19950;-72
2022/11/08 11:31:15;;;;;;;3.55;1.40;;;15.50;99.90;;;;;;5080638;28;20093;-71
2022/11/08 11:33:45;;;;;;;4.95;1.30;;;15.60;99.90;;;;;;5080199;28;20043;-70
2022/11/08 11:36:17;;;;;;;5.15;1.15;;;15.70;99.90;;;;;;5046839;28;20028;-71
2022/11/08 11:38:49;;;;;;;2.88;1.20;;;15.80;99.90;;;;;;5080585;28;20039;-70
2022/11/08 11:41:21;;;;;;;5.13;1.30;;;15.70;99.90;;;;;;5080484;28;20373;-69
2022/11/08 11:43:52;;;;;;;4.80;1.83;;;15.60;99.90;;;;;;5079808;28;20040;-69
2022/11/08 11:47:17;;;;;;;6.00;1.42;;;15.70;99.90;;;;;;5080653;28;20040;-70
2022/11/08 11:49:45;;;;;;;2.08;1.02;;;15.70;99.90;;;;;;5057837;28;20045;-69
2022/11/08 11:52:17;;;;;;;3.80;1.20;;;15.60;99.90;;;;;;5079506;28;20042;-69
2022/11/08 11:54:46;;;;;;;3.22;1.55;;;15.60;99.90;;;;;;5079801;28;20048;-69
2022/11/08 11:57:33;;;;;;;2.38;1.20;;;15.60;99.90;;;;;;5062800;28;20024;-70
2022/11/08 12:00:08;;;;;;;7.70;1.52;;;15.60;99.90;;;;;;5099134;28;20054;-68
2022/11/08 12:02:53;;;;;;;2.47;1.33;;;15.60;99.90;;;;;;5100403;28;20300;-68
2022/11/08 12:05:31;;;;;;;2.13;1.30;;;15.70;99.90;;;;;;5100869;28;20047;-66
2022/11/08 12:08:48;;;;;;;1.75;1.10;;;15.60;99.90;;;;;;5099723;28;20024;-70
2022/11/08 12:11:43;;;;;;;3.53;1.50;;;15.80;99.90;;;;;;5084724;28;20455;-69
2022/11/08 12:14:35;;;;;;;5.55;1.63;;;15.90;99.90;;;;;;5101030;28;20070;-73
2022/11/08 12:17:39;;;;;;;4.83;1.50;;;16.20;99.90;;;;;;5099877;28;20035;-68
2022/11/08 12:20:25;;;;;;;4.53;1.35;;;16.10;99.90;;;;;;5085980;28;20090;-68
2022/11/08 12:23:29;;;;;;;5.03;1.30;;;16.20;99.90;;;;;;5100421;28;20031;-67
2022/11/08 12:26:03;;;;;;;4.72;1.30;;;16.10;99.90;;;;;;5018772;28;20034;-68
2022/11/08 12:28:37;;;;;;;4.57;1.25;;;16.20;99.90;;;;;;5018444;28;20437;-68
2022/11/08 12:31:15;;;;;;;2.70;1.20;;;16.10;99.90;;;;;;5034791;28;20042;-68
2022/11/08 12:34:03;;;;;;;4.55;1.40;;;16.10;99.90;;;;;;5018129;28;20185;-69
2022/11/08 12:36:35;;;;;;;2.63;1.40;;;16.20;99.90;;;;;;5030184;28;20299;-67
2022/11/08 12:39:06;;;;;;;5.55;1.30;;;16.10;99.90;;;;;;5099983;28;20402;-69
2022/11/08 12:41:44;;;;;;;5.72;1.50;;;16.20;99.90;;;;;;5099542;28;20055;-69
2022/11/08 12:44:31;;;;;;;5.45;1.58;;;16.20;99.90;;;;;;5100179;28;20036;-69
2022/11/08 12:47:03;;;;;;;3.28;1.33;;;16.10;99.90;;;;;;5098707;28;20090;-67
2022/11/08 12:50:17;;;;;;;3.08;1.23;;;16.10;99.90;;;;;;5098898;28;20035;-70
2022/11/08 12:52:49;;;;;;;3.78;1.30;;;16.20;99.90;;;;;;5027690;28;20033;-69
2022/11/08 12:55:36;;;;;;;6.15;1.33;;;16.30;99.90;;;;;;5081728;28;20119;-68
2022/11/08 12:58:38;;;;;;;4.40;1.23;;;16.30;99.90;;;;;;5099143;28;20024;-69
2022/11/08 13:01:12;;;;;;;3.30;1.42;;;16.30;99.90;;;;;;5081728;28;20391;-68
2022/11/08 13:03:45;;;;;;;8.90;1.40;;;16.20;99.90;;;;;;5099210;28;20067;-69
2022/11/08 13:06:25;;;;;;;2.90;1.40;;;16.20;99.90;;;;;;5098539;28;20055;-68
2022/11/08 13:09:24;;;;;;;3.97;1.40;;;16.30;99.90;;;;;;5099294;28;20085;-69
2022/11/08 13:12:15;;;;;;;5.35;1.50;;;16.30;99.90;;;;;;5098367;28;20032;-70
2022/11/08 13:14:45;;;;;;;3.80;1.10;;;16.40;99.90;;;;;;5099260;28;20035;-69
2022/11/08 13:17:15;;;;;;;4.53;1.45;;;16.40;99.90;;;;;;5082068;28;20035;-69
2022/11/08 13:19:46;;;;;;;5.47;1.55;;;16.50;99.90;;;;;;5098952;28;20090;-69
2022/11/08 13:22:27;;;;;;;5.40;1.20;;;16.50;99.90;;;;;;5098123;28;20307;-66
2022/11/08 13:24:55;;;;;;;3.17;1.27;;;16.60;99.90;;;;;;5097872;28;20562;-67
2022/11/08 13:27:32;;;;;;;4.78;1.17;;;16.40;99.90;;;;;;5098286;28;20404;-69